Terminal Aerodrome Forecast
Issued by NWS Quad Cities IA IL

Home | Current Version | Previous Version | Text Only | Print | Product List | Glossary On
Versions: 1 2 3 4 5 6 7 8 9 10 11 12 13 14 15 16 17 18 19 20 21 22 23 24 25 26 27 28 29 30 31 32
000
FTUS43 KDVN 231700 RRA
TAFMLI
TAF
KMLI 231753Z 2318/2418 08008KT P6SM VCSH SCT006 OVC150
      TEMPO 2318/2320 BKN006
     FM232000 13007KT P6SM SCT015 SCT150
     FM240600 14005KT 4SM BR SCT120
     FM240900 15004KT 1SM BR SCT005 SCT250
     FM241500 18008KT 6SM BR BKN250=

USA.gov is the U.S. government's official web portal to all federal, state and local government web resources and services.